Time;durP1;ratioP1;P1;durP2;ratioP2;P2;SDS_P1;SDS_P2;PMS_P1;PMS_P2;Temp;Humidity;BMP_temperature;BMP_pressure;BME280_temperature;BME280_humidity;BME280_pressure;Samples;Min_cycle;Max_cycle;Signal;HPM_P1;HPM_P2
2023/10/22 00:03:44;;;;;;;36.30;16.75;;;;;;;;;;8299738;28;20053;-84
2023/10/22 00:23:56;;;;;;;40.25;21.17;;;;;;;;;;8330643;23;20061;-91
2023/10/22 00:28:00;;;;;;;56.15;24.45;;;;;;;;;;8285298;28;20073;-89
2023/10/22 00:32:03;;;;;;;55.75;25.05;;;;;;;;;;8285819;28;20070;-92
2023/10/22 00:36:07;;;;;;;50.05;22.92;;;;;;;;;;8289966;28;20133;-92
2023/10/22 00:40:12;;;;;;;51.60;25.25;;;;;;;;;;8286274;28;20050;-90
2023/10/22 00:44:16;;;;;;;49.78;22.48;;;;;;;;;;8273191;28;20077;-91
2023/10/22 00:48:19;;;;;;;42.65;19.52;;;;;;;;;;8302289;28;20096;-90
2023/10/22 00:52:23;;;;;;;42.85;20.88;;;;;;;;;;8287030;28;20132;-91
2023/10/22 00:56:30;;;;;;;43.28;19.27;;;;;;;;;;8286356;28;20066;-90
2023/10/22 01:00:34;;;;;;;44.72;19.42;;;;;;;;;;8273223;28;20091;-90
2023/10/22 01:04:37;;;;;;;34.78;17.80;;;;;;;;;;8284476;28;20137;-92
2023/10/22 01:08:40;;;;;;;35.47;18.42;;;;;;;;;;8302743;28;20517;-92
2023/10/22 01:12:45;;;;;;;35.75;18.38;;;;;;;;;;8285805;28;20077;-91
2023/10/22 01:16:48;;;;;;;31.70;17.85;;;;;;;;;;8259364;28;20547;-86
2023/10/22 01:20:52;;;;;;;28.60;16.88;;;;;;;;;;8272692;28;20062;-90
2023/10/22 01:24:57;;;;;;;35.63;17.63;;;;;;;;;;8259722;28;20054;-90
2023/10/22 01:29:00;;;;;;;33.15;16.70;;;;;;;;;;8251911;28;20425;-85
2023/10/22 01:33:03;;;;;;;45.35;18.45;;;;;;;;;;8268875;28;20062;-90
2023/10/22 01:37:06;;;;;;;40.25;18.52;;;;;;;;;;8255491;28;20050;-90
2023/10/22 01:41:11;;;;;;;36.13;16.88;;;;;;;;;;8268675;28;20470;-92
2023/10/22 01:45:14;;;;;;;36.92;17.35;;;;;;;;;;8255814;28;20055;-89
2023/10/22 01:49:17;;;;;;;38.47;16.27;;;;;;;;;;8255283;28;20402;-90
2023/10/22 01:53:21;;;;;;;39.25;17.33;;;;;;;;;;8268268;28;20502;-91
2023/10/22 01:57:29;;;;;;;33.15;17.98;;;;;;;;;;8246489;28;20126;-89
2023/10/22 02:01:32;;;;;;;31.88;15.35;;;;;;;;;;8238967;28;20406;-86
2023/10/22 02:05:35;;;;;;;30.05;15.38;;;;;;;;;;8267474;28;20138;-91
2023/10/22 02:09:38;;;;;;;36.28;16.60;;;;;;;;;;8254522;28;20410;-87
2023/10/22 02:13:45;;;;;;;37.40;16.35;;;;;;;;;;8267385;28;20441;-89
2023/10/22 02:17:49;;;;;;;42.53;19.45;;;;;;;;;;8266865;28;20089;-92
2023/10/22 02:21:53;;;;;;;41.25;18.67;;;;;;;;;;8259713;28;20070;-87
2023/10/22 02:25:56;;;;;;;41.17;18.20;;;;;;;;;;8282097;28;20065;-91
2023/10/22 02:30:02;;;;;;;38.35;17.73;;;;;;;;;;8371972;23;20084;-92
2023/10/22 02:34:06;;;;;;;41.00;16.45;;;;;;;;;;8298437;28;20077;-87
2023/10/22 02:42:27;;;;;;;38.72;16.25;;;;;;;;;;8323427;23;20050;-90
2023/10/22 02:46:32;;;;;;;41.80;19.45;;;;;;;;;;8299172;28;20445;-89
2023/10/22 02:50:39;;;;;;;44.90;18.60;;;;;;;;;;8293192;28;20058;-89
2023/10/22 02:54:42;;;;;;;40.08;20.13;;;;;;;;;;8249742;28;20061;-91
2023/10/22 02:58:46;;;;;;;51.83;21.30;;;;;;;;;;8243560;28;20064;-90
2023/10/22 03:02:53;;;;;;;56.17;24.13;;;;;;;;;;8268777;28;20062;-85
2023/10/22 03:06:56;;;;;;;84.63;29.02;;;;;;;;;;8272023;28;20061;-86
2023/10/22 03:11:00;;;;;;;61.88;23.75;;;;;;;;;;8268648;28;20105;-87
2023/10/22 03:15:04;;;;;;;57.85;22.10;;;;;;;;;;8273153;28;20108;-86
2023/10/22 03:23:19;;;;;;;49.15;20.77;;;;;;;;;;8373289;23;20128;-89
2023/10/22 03:27:22;;;;;;;49.30;19.67;;;;;;;;;;8330680;28;20052;-91
2023/10/22 03:31:25;;;;;;;37.20;16.10;;;;;;;;;;8400306;22;20053;-91
2023/10/22 03:35:29;;;;;;;35.92;17.83;;;;;;;;;;8329107;28;20132;-88
2023/10/22 03:39:37;;;;;;;38.78;18.40;;;;;;;;;;8273980;28;20431;-90
2023/10/22 03:43:40;;;;;;;42.88;22.40;;;;;;;;;;8330747;28;20073;-88
2023/10/22 03:47:44;;;;;;;49.00;20.92;;;;;;;;;;8313166;28;20053;-90
2023/10/22 03:51:47;;;;;;;49.97;21.02;;;;;;;;;;8311640;28;20112;-88
2023/10/22 03:55:54;;;;;;;41.63;19.15;;;;;;;;;;8308278;28;20060;-88
2023/10/22 03:59:57;;;;;;;47.25;20.30;;;;;;;;;;8319536;28;20057;-89
2023/10/22 04:04:00;;;;;;;52.33;22.25;;;;;;;;;;8310793;28;20058;-90
2023/10/22 04:08:04;;;;;;;58.38;22.58;;;;;;;;;;8315863;28;20056;-90
2023/10/22 04:12:09;;;;;;;57.72;25.40;;;;;;;;;;8320116;28;20054;-90
2023/10/22 04:16:16;;;;;;;70.45;27.40;;;;;;;;;;8302818;28;20045;-88
2023/10/22 04:20:19;;;;;;;65.45;25.63;;;;;;;;;;8310126;28;20481;-90
2023/10/22 04:24:22;;;;;;;58.65;24.75;;;;;;;;;;8292190;28;20408;-86
2023/10/22 04:28:27;;;;;;;66.03;22.33;;;;;;;;;;8295880;28;20073;-83
2023/10/22 04:32:30;;;;;;;50.58;20.02;;;;;;;;;;8319834;28;20057;-87
2023/10/22 04:36:33;;;;;;;48.60;19.50;;;;;;;;;;8335662;28;20057;-83
2023/10/22 04:40:37;;;;;;;46.40;20.40;;;;;;;;;;8291417;28;20057;-88
2023/10/22 04:44:47;;;;;;;54.05;21.02;;;;;;;;;;8317813;28;20065;-84
2023/10/22 04:48:50;;;;;;;45.60;18.50;;;;;;;;;;8318172;28;20136;-84
2023/10/22 04:52:53;;;;;;;55.63;23.48;;;;;;;;;;8318358;28;20053;-85
2023/10/22 04:56:56;;;;;;;56.55;23.30;;;;;;;;;;8334819;28;20041;-86
2023/10/22 05:01:03;;;;;;;57.28;22.40;;;;;;;;;;8307153;28;20081;-87
2023/10/22 05:05:14;;;;;;;78.22;21.00;;;;;;;;;;8264684;28;20153;-91
2023/10/22 05:09:18;;;;;;;51.53;20.38;;;;;;;;;;8290640;28;20066;-90
2023/10/22 05:13:23;;;;;;;51.03;19.73;;;;;;;;;;8287006;28;20483;-90
2023/10/22 05:17:31;;;;;;;46.08;21.17;;;;;;;;;;8284136;28;20107;-87
2023/10/22 05:21:35;;;;;;;65.22;25.40;;;;;;;;;;8291919;28;20409;-92
2023/10/22 05:25:37;;;;;;;97.35;26.60;;;;;;;;;;8283917;28;20117;-90
2023/10/22 05:29:41;;;;;;;141.00;22.38;;;;;;;;;;8300898;28;20049;-89
2023/10/22 05:33:46;;;;;;;88.72;21.95;;;;;;;;;;8271913;28;20064;-92
2023/10/22 05:37:51;;;;;;;63.47;21.02;;;;;;;;;;8258893;28;20065;-91
2023/10/22 05:41:54;;;;;;;44.05;22.15;;;;;;;;;;8268623;28;20081;-88
2023/10/22 05:45:57;;;;;;;44.72;23.45;;;;;;;;;;8256496;28;20057;-93
2023/10/22 05:50:03;;;;;;;51.60;23.98;;;;;;;;;;8280132;28;20058;-88
2023/10/22 05:54:07;;;;;;;97.82;24.98;;;;;;;;;;8268690;28;20066;-91
2023/10/22 05:58:10;;;;;;;103.18;24.42;;;;;;;;;;8291047;28;20383;-93
2023/10/22 06:02:13;;;;;;;62.33;23.58;;;;;;;;;;8287332;28;20108;-90
2023/10/22 06:06:22;;;;;;;94.03;22.75;;;;;;;;;;8287948;28;20225;-91
2023/10/22 06:10:27;;;;;;;129.20;21.55;;;;;;;;;;8287478;28;20100;-92
2023/10/22 06:14:30;;;;;;;117.72;25.02;;;;;;;;;;8275642;28;20088;-88
2023/10/22 06:18:34;;;;;;;177.13;25.42;;;;;;;;;;8272808;28;20067;-91
2023/10/22 06:22:39;;;;;;;133.52;22.58;;;;;;;;;;8285514;28;20050;-93
2023/10/22 06:26:45;;;;;;;108.00;21.10;;;;;;;;;;8292539;28;20050;-92
2023/10/22 06:30:48;;;;;;;41.13;20.98;;;;;;;;;;8287593;28;20092;-91
2023/10/22 06:34:51;;;;;;;35.08;19.85;;;;;;;;;;8302917;28;20114;-85
2023/10/22 06:38:59;;;;;;;31.73;19.40;;;;;;;;;;8297749;28;20654;-87
2023/10/22 06:43:02;;;;;;;32.03;19.08;;;;;;;;;;8287089;28;20115;-89
2023/10/22 06:47:05;;;;;;;147.43;21.00;;;;;;;;;;8310976;28;20054;-86
2023/10/22 06:51:13;;;;;;;34.22;20.17;;;;;;;;;;8270354;28;20493;-91
2023/10/22 06:55:20;;;;;;;113.25;19.77;;;;;;;;;;8282342;28;20058;-92
2023/10/22 06:59:24;;;;;;;228.73;21.83;;;;;;;;;;8315175;28;20049;-92
2023/10/22 07:15:15;;;;;;;24.25;16.50;;;;;;;;;;8527204;27;20378;-91
2023/10/22 07:19:19;;;;;;;21.83;14.27;;;;;;;;;;8511208;27;20058;-91
2023/10/22 07:23:22;;;;;;;20.58;15.18;;;;;;;;;;8503375;27;20048;-90
2023/10/22 07:27:27;;;;;;;16.85;12.25;;;;;;;;;;8498205;27;20110;-92
2023/10/22 07:31:32;;;;;;;18.08;13.90;;;;;;;;;;8523742;27;20038;-90
2023/10/22 07:35:36;;;;;;;17.90;13.70;;;;;;;;;;8495662;27;20057;-90
2023/10/22 07:39:39;;;;;;;15.93;12.30;;;;;;;;;;8478821;27;20443;-91
2023/10/22 07:43:42;;;;;;;22.95;13.80;;;;;;;;;;8516428;27;20042;-91
2023/10/22 07:47:47;;;;;;;11.32;9.13;;;;;;;;;;8500964;27;20085;-92
2023/10/22 07:51:50;;;;;;;13.35;9.93;;;;;;;;;;8482427;28;20222;-93
2023/10/22 07:55:53;;;;;;;12.70;10.50;;;;;;;;;;8521710;27;20460;-92
2023/10/22 07:59:57;;;;;;;12.98;10.30;;;;;;;;;;8492178;28;20040;-92
2023/10/22 08:04:01;;;;;;;12.75;9.90;;;;;;;;;;8509641;27;20122;-92
2023/10/22 08:08:05;;;;;;;17.15;12.68;;;;;;;;;;8499396;27;20118;-91
2023/10/22 08:12:08;;;;;;;25.60;17.83;;;;;;;;;;8495586;27;20058;-92
2023/10/22 08:16:12;;;;;;;23.63;17.20;;;;;;;;;;8470814;27;20040;-92
2023/10/22 08:20:16;;;;;;;24.08;16.42;;;;;;;;;;8471884;27;20312;-91
2023/10/22 08:24:20;;;;;;;17.25;13.48;;;;;;;;;;8473335;27;20051;-88
2023/10/22 08:28:24;;;;;;;20.48;14.75;;;;;;;;;;8485617;27;20043;-89
2023/10/22 08:32:28;;;;;;;32.78;19.75;;;;;;;;;;8452505;27;20501;-92
2023/10/22 08:36:35;;;;;;;36.75;20.17;;;;;;;;;;8481449;27;20145;-91
2023/10/22 08:40:41;;;;;;;46.42;21.98;;;;;;;;;;8466417;28;20127;-91
2023/10/22 08:44:48;;;;;;;47.67;23.05;;;;;;;;;;8473784;27;20451;-91
2023/10/22 08:48:51;;;;;;;38.97;22.63;;;;;;;;;;8467042;27;20075;-90
2023/10/22 08:52:56;;;;;;;42.42;22.95;;;;;;;;;;8474332;27;20482;-92
2023/10/22 08:56:59;;;;;;;40.00;22.38;;;;;;;;;;8473278;27;20133;-89
2023/10/22 09:01:02;;;;;;;47.60;23.88;;;;;;;;;;8448819;27;20059;-89
2023/10/22 09:05:07;;;;;;;34.35;19.05;;;;;;;;;;8474143;27;20096;-92
2023/10/22 09:09:30;;;;;;;15.63;11.40;;;;;;;;;;8455642;28;20078;-90
2023/10/22 09:13:34;;;;;;;15.27;11.63;;;;;;;;;;8471595;27;20494;-92
2023/10/22 09:17:37;;;;;;;26.88;18.67;;;;;;;;;;8446498;28;20051;-92
2023/10/22 09:21:43;;;;;;;20.60;13.43;;;;;;;;;;8459083;28;20489;-91
2023/10/22 09:25:50;;;;;;;15.35;10.93;;;;;;;;;;8465690;28;20548;-92
2023/10/22 09:29:54;;;;;;;14.00;10.88;;;;;;;;;;8478386;27;20055;-92
2023/10/22 09:33:57;;;;;;;15.07;11.68;;;;;;;;;;8445422;28;20047;-92
2023/10/22 09:38:00;;;;;;;14.55;10.45;;;;;;;;;;8467185;28;20058;-92
2023/10/22 09:42:06;;;;;;;15.20;10.52;;;;;;;;;;8457785;28;20097;-93
2023/10/22 09:46:09;;;;;;;11.88;9.73;;;;;;;;;;8454928;27;20078;-92
2023/10/22 09:50:18;;;;;;;12.70;9.48;;;;;;;;;;8448777;27;20410;-91
2023/10/22 09:54:24;;;;;;;12.82;9.32;;;;;;;;;;8453923;27;20034;-92
2023/10/22 09:58:30;;;;;;;15.43;9.57;;;;;;;;;;8465431;27;20040;-91
2023/10/22 10:02:43;;;;;;;12.02;8.02;;;;;;;;;;8453902;28;20559;-92
2023/10/22 10:06:56;;;;;;;19.67;12.25;;;;;;;;;;8453348;27;20051;-90
2023/10/22 10:11:00;;;;;;;8.43;5.75;;;;;;;;;;8458603;27;20083;-91
2023/10/22 10:15:07;;;;;;;6.85;4.72;;;;;;;;;;8464390;28;20056;-90
2023/10/22 10:19:20;;;;;;;7.68;4.80;;;;;;;;;;8462698;27;20101;-91
2023/10/22 10:23:25;;;;;;;6.43;4.05;;;;;;;;;;8473932;27;20039;-90
2023/10/22 10:27:31;;;;;;;9.18;6.13;;;;;;;;;;8487146;27;20050;-91
2023/10/22 10:31:37;;;;;;;6.40;4.57;;;;;;;;;;8466598;27;20046;-91
2023/10/22 10:35:47;;;;;;;6.75;4.63;;;;;;;;;;8462941;27;20068;-91
2023/10/22 10:39:51;;;;;;;6.95;5.15;;;;;;;;;;8451859;28;20040;-91
2023/10/22 10:44:08;;;;;;;16.67;8.57;;;;;;;;;;8461488;28;20452;-90
2023/10/22 10:48:45;;;;;;;11.27;7.07;;;;;;;;;;8457874;27;20043;-94
2023/10/22 10:53:02;;;;;;;7.80;5.65;;;;;;;;;;8452958;28;20073;-90
2023/10/22 10:57:05;;;;;;;11.23;8.15;;;;;;;;;;8464465;28;20125;-92
2023/10/22 11:01:08;;;;;;;7.60;5.78;;;;;;;;;;8453573;27;20092;-92
2023/10/22 11:05:11;;;;;;;12.57;7.45;;;;;;;;;;8462467;28;20047;-90
2023/10/22 11:09:16;;;;;;;10.90;7.10;;;;;;;;;;8457425;28;20050;-89
2023/10/22 11:13:27;;;;;;;10.25;6.10;;;;;;;;;;8465285;28;20409;-89
2023/10/22 11:17:30;;;;;;;11.75;6.15;;;;;;;;;;8456714;28;20048;-90
2023/10/22 11:21:37;;;;;;;8.60;5.68;;;;;;;;;;8471412;28;20047;-90
2023/10/22 11:25:43;;;;;;;11.70;6.18;;;;;;;;;;8474749;28;20498;-92
2023/10/22 11:29:48;;;;;;;9.80;6.35;;;;;;;;;;8464335;28;20235;-91
2023/10/22 11:33:57;;;;;;;7.93;6.30;;;;;;;;;;8470702;28;20183;-91
2023/10/22 11:38:00;;;;;;;10.25;7.32;;;;;;;;;;8469203;28;20047;-92
2023/10/22 11:42:07;;;;;;;11.07;8.13;;;;;;;;;;8463178;28;20105;-89
2023/10/22 11:46:10;;;;;;;9.43;6.43;;;;;;;;;;8460373;28;20413;-90
2023/10/22 11:50:14;;;;;;;8.63;6.45;;;;;;;;;;8468086;27;20048;-91
2023/10/22 11:54:17;;;;;;;9.63;6.78;;;;;;;;;;8453973;28;20518;-89
2023/10/22 11:58:24;;;;;;;9.48;6.47;;;;;;;;;;8443035;27;20048;-88
2023/10/22 12:13:55;;;;;;;8.25;6.40;;;;;;;;;;8499792;27;20455;-93
2023/10/22 12:17:59;;;;;;;8.20;5.80;;;;;;;;;;8492642;27;20104;-92
2023/10/22 12:22:02;;;;;;;8.40;5.47;;;;;;;;;;8488922;27;20043;-94
2023/10/22 12:26:10;;;;;;;9.77;6.47;;;;;;;;;;8492460;28;20066;-95
2023/10/22 12:30:15;;;;;;;14.80;6.40;;;;;;;;;;8492200;28;20474;-95
2023/10/22 12:34:18;;;;;;;7.45;5.32;;;;;;;;;;8490634;27;20035;-92
2023/10/22 12:38:21;;;;;;;10.02;6.22;;;;;;;;;;8477372;28;20182;-93
2023/10/22 12:42:24;;;;;;;7.30;4.50;;;;;;;;;;8485622;28;20569;-93
2023/10/22 12:46:29;;;;;;;6.00;3.85;;;;;;;;;;8472569;28;20498;-93
2023/10/22 12:50:47;;;;;;;7.78;4.20;;;;;;;;;;8492535;27;20039;-93
2023/10/22 12:54:56;;;;;;;5.68;3.70;;;;;;;;;;8485403;28;20045;-94
2023/10/22 12:58:59;;;;;;;5.25;3.63;;;;;;;;;;8481269;27;20429;-93
2023/10/22 13:03:17;;;;;;;8.02;4.60;;;;;;;;;;8485132;27;20126;-95
2023/10/22 13:07:20;;;;;;;4.55;3.10;;;;;;;;;;8488224;28;20047;-93
2023/10/22 13:11:32;;;;;;;5.57;3.47;;;;;;;;;;8482097;27;20059;-94
2023/10/22 13:15:36;;;;;;;6.65;3.88;;;;;;;;;;8459256;27;20435;-94
2023/10/22 13:19:44;;;;;;;8.75;4.97;;;;;;;;;;8458063;27;20504;-93
2023/10/22 13:23:48;;;;;;;7.97;4.35;;;;;;;;;;8460399;28;20138;-93
2023/10/22 13:27:52;;;;;;;8.50;5.63;;;;;;;;;;8465359;28;20051;-94
2023/10/22 13:31:59;;;;;;;8.68;4.90;;;;;;;;;;8466441;28;20051;-93
2023/10/22 13:36:04;;;;;;;6.43;3.95;;;;;;;;;;8465362;28;20077;-93
2023/10/22 13:40:08;;;;;;;9.50;4.50;;;;;;;;;;8457315;28;20088;-94
2023/10/22 13:44:11;;;;;;;6.97;4.70;;;;;;;;;;8456712;27;20047;-93
2023/10/22 13:48:14;;;;;;;9.02;4.32;;;;;;;;;;8461869;27;20031;-94
2023/10/22 13:52:19;;;;;;;8.68;5.07;;;;;;;;;;8463897;28;20500;-91
2023/10/22 13:56:22;;;;;;;7.70;5.22;;;;;;;;;;8468503;28;20039;-91
2023/10/22 14:00:27;;;;;;;7.18;4.78;;;;;;;;;;8463925;28;20040;-93
2023/10/22 14:04:34;;;;;;;6.93;4.45;;;;;;;;;;8457588;28;20053;-92
2023/10/22 14:08:41;;;;;;;8.07;5.45;;;;;;;;;;8467190;28;20043;-93
2023/10/22 14:12:49;;;;;;;6.00;4.45;;;;;;;;;;8467268;28;20380;-94
2023/10/22 14:16:52;;;;;;;8.43;5.60;;;;;;;;;;8467525;28;20445;-91
2023/10/22 14:20:55;;;;;;;8.02;5.25;;;;;;;;;;8466575;28;20085;-92
2023/10/22 14:25:02;;;;;;;6.95;4.03;;;;;;;;;;8463226;28;20048;-95
2023/10/22 14:29:08;;;;;;;8.18;4.88;;;;;;;;;;8467348;28;20050;-93
2023/10/22 14:33:14;;;;;;;7.07;4.40;;;;;;;;;;8461522;28;20040;-94
2023/10/22 14:37:18;;;;;;;7.85;5.25;;;;;;;;;;8455193;28;20043;-94
2023/10/22 14:41:23;;;;;;;9.93;6.13;;;;;;;;;;8466222;28;20051;-93
2023/10/22 14:45:28;;;;;;;14.48;7.13;;;;;;;;;;8455388;28;20051;-94
2023/10/22 14:49:31;;;;;;;13.38;7.18;;;;;;;;;;8465957;28;20398;-94
2023/10/22 14:53:35;;;;;;;13.80;7.53;;;;;;;;;;8460799;28;20044;-93
2023/10/22 14:57:42;;;;;;;8.85;6.07;;;;;;;;;;8465981;28;20039;-93
2023/10/22 15:01:47;;;;;;;7.57;4.93;;;;;;;;;;8452685;27;20078;-95
2023/10/22 15:05:52;;;;;;;7.72;5.32;;;;;;;;;;8466218;28;20613;-92
2023/10/22 15:09:56;;;;;;;9.32;6.18;;;;;;;;;;8465297;28;20051;-92
2023/10/22 15:14:01;;;;;;;18.52;10.38;;;;;;;;;;8465133;28;20138;-92
2023/10/22 15:18:05;;;;;;;15.68;9.57;;;;;;;;;;8465037;28;20045;-93
2023/10/22 15:22:10;;;;;;;13.20;7.10;;;;;;;;;;8453067;28;20043;-93
2023/10/22 15:26:14;;;;;;;15.40;8.00;;;;;;;;;;8466451;27;20051;-92
2023/10/22 15:30:19;;;;;;;19.23;9.90;;;;;;;;;;8461695;27;20047;-92
2023/10/22 15:34:24;;;;;;;12.02;7.30;;;;;;;;;;8464636;28;20044;-92
2023/10/22 15:38:28;;;;;;;12.57;7.43;;;;;;;;;;8464566;28;20116;-93
2023/10/22 15:42:32;;;;;;;12.52;8.65;;;;;;;;;;8464909;28;20048;-91
2023/10/22 15:46:39;;;;;;;16.48;9.10;;;;;;;;;;8465228;28;20052;-93
2023/10/22 15:50:43;;;;;;;21.50;10.27;;;;;;;;;;8461829;28;20042;-94
2023/10/22 15:54:49;;;;;;;21.33;9.15;;;;;;;;;;8451330;28;20047;-92
2023/10/22 15:58:54;;;;;;;26.65;11.25;;;;;;;;;;8445834;28;20079;-93
2023/10/22 16:03:03;;;;;;;25.25;10.70;;;;;;;;;;8449735;28;20044;-92
2023/10/22 16:07:06;;;;;;;18.45;10.57;;;;;;;;;;8462347;28;20051;-94
2023/10/22 16:11:11;;;;;;;22.92;11.75;;;;;;;;;;8464587;28;20112;-92
2023/10/22 16:15:17;;;;;;;21.58;12.35;;;;;;;;;;8464728;28;20054;-93
2023/10/22 16:19:24;;;;;;;18.45;10.75;;;;;;;;;;8464679;28;20107;-93
2023/10/22 16:23:28;;;;;;;21.48;11.63;;;;;;;;;;8462481;28;20070;-92
2023/10/22 16:27:32;;;;;;;21.65;11.75;;;;;;;;;;8464554;28;20138;-93
2023/10/22 16:31:37;;;;;;;20.08;12.75;;;;;;;;;;8464491;28;20065;-93
2023/10/22 16:35:43;;;;;;;22.13;13.02;;;;;;;;;;8464830;28;20044;-94
2023/10/22 16:39:47;;;;;;;22.17;12.40;;;;;;;;;;8465058;28;20055;-93
2023/10/22 16:43:51;;;;;;;22.58;13.55;;;;;;;;;;8464555;28;20379;-92
2023/10/22 16:47:55;;;;;;;21.27;13.35;;;;;;;;;;8467130;28;20127;-92
2023/10/22 16:52:02;;;;;;;22.48;12.93;;;;;;;;;;8470891;28;20044;-92
2023/10/22 16:56:06;;;;;;;25.77;14.23;;;;;;;;;;8470798;28;20483;-94
2023/10/22 17:00:11;;;;;;;25.70;13.82;;;;;;;;;;8471046;28;20048;-93
2023/10/22 17:04:19;;;;;;;26.15;14.57;;;;;;;;;;8470543;28;20044;-92
2023/10/22 17:08:24;;;;;;;30.75;15.10;;;;;;;;;;8471229;28;20051;-93
2023/10/22 17:12:28;;;;;;;29.77;15.02;;;;;;;;;;8470819;28;20138;-94
2023/10/22 17:16:34;;;;;;;24.33;12.48;;;;;;;;;;8469971;28;20047;-94
2023/10/22 17:20:39;;;;;;;23.20;13.65;;;;;;;;;;8470185;28;20050;-93
2023/10/22 17:24:45;;;;;;;23.42;13.73;;;;;;;;;;8469717;28;20088;-92
2023/10/22 17:28:55;;;;;;;33.70;15.20;;;;;;;;;;8468517;28;20497;-92
2023/10/22 17:32:59;;;;;;;25.67;14.98;;;;;;;;;;8469747;28;20047;-93
2023/10/22 17:37:05;;;;;;;25.77;14.73;;;;;;;;;;8469150;28;20383;-91
2023/10/22 17:45:44;;;;;;;25.58;14.95;;;;;;;;;;8469099;28;20402;-92
2023/10/22 17:49:50;;;;;;;32.78;17.60;;;;;;;;;;8468466;28;20067;-93
2023/10/22 17:53:56;;;;;;;28.58;15.95;;;;;;;;;;8466721;28;20058;-91
2023/10/22 17:58:08;;;;;;;26.52;15.93;;;;;;;;;;8469140;28;20048;-93
2023/10/22 18:02:16;;;;;;;;;;;;;;;;;;8463337;28;20069;-96
2023/10/22 18:06:35;;;;;;;26.30;14.68;;;;;;;;;;8470101;28;19927;-94
2023/10/22 18:10:55;;;;;;;28.42;15.70;;;;;;;;;;8470358;28;20060;-95
2023/10/22 18:15:18;;;;;;;28.23;14.20;;;;;;;;;;8555948;22;20508;-93
2023/10/22 18:19:28;;;;;;;23.92;14.32;;;;;;;;;;8364866;28;20473;-92
2023/10/22 18:23:47;;;;;;;23.13;13.32;;;;;;;;;;8348979;28;20075;-91
2023/10/22 18:27:58;;;;;;;26.77;14.45;;;;;;;;;;8366176;28;20045;-93
2023/10/22 18:32:23;;;;;;;30.90;16.48;;;;;;;;;;8346886;28;20460;-92
2023/10/22 18:36:27;;;;;;;34.45;15.13;;;;;;;;;;8361309;28;20041;-92
2023/10/22 18:40:32;;;;;;;31.95;14.93;;;;;;;;;;8346541;28;20496;-92
2023/10/22 18:44:45;;;;;;;29.52;13.48;;;;;;;;;;8353431;28;20052;-93
2023/10/22 18:48:53;;;;;;;30.40;14.43;;;;;;;;;;8335632;28;20041;-93
2023/10/22 18:53:08;;;;;;;30.52;15.73;;;;;;;;;;8344944;28;20041;-92
2023/10/22 18:57:33;;;;;;;24.40;13.40;;;;;;;;;;8366769;28;20048;-93
2023/10/22 19:01:37;;;;;;;24.92;14.27;;;;;;;;;;8354793;28;20041;-89
2023/10/22 19:05:49;;;;;;;23.38;13.20;;;;;;;;;;8339482;28;20056;-92
2023/10/22 19:09:53;;;;;;;18.50;11.07;;;;;;;;;;8335525;28;20112;-93
2023/10/22 19:14:02;;;;;;;21.67;11.38;;;;;;;;;;8358937;28;20155;-92
2023/10/22 19:18:09;;;;;;;21.88;12.35;;;;;;;;;;8345654;28;20049;-92
2023/10/22 19:22:17;;;;;;;29.40;15.15;;;;;;;;;;8352817;28;20056;-91
2023/10/22 19:26:25;;;;;;;27.13;16.08;;;;;;;;;;8365955;28;20120;-92
2023/10/22 19:30:31;;;;;;;34.42;16.98;;;;;;;;;;8365821;28;20045;-92
2023/10/22 19:34:37;;;;;;;30.45;16.73;;;;;;;;;;8358045;28;20083;-91
2023/10/22 19:38:46;;;;;;;32.90;17.85;;;;;;;;;;8342103;28;20056;-91
2023/10/22 19:42:55;;;;;;;33.63;15.32;;;;;;;;;;8341944;28;20390;-91
2023/10/22 19:47:01;;;;;;;32.67;14.45;;;;;;;;;;8345745;28;20049;-92
2023/10/22 19:51:07;;;;;;;33.08;14.32;;;;;;;;;;8340866;28;20041;-93
2023/10/22 19:55:13;;;;;;;31.27;14.52;;;;;;;;;;8341815;28;20037;-90
2023/10/22 19:59:17;;;;;;;29.25;13.60;;;;;;;;;;8329224;28;20081;-93
2023/10/22 20:03:21;;;;;;;32.03;13.73;;;;;;;;;;8364127;28;20548;-92
2023/10/22 20:07:25;;;;;;;34.25;13.18;;;;;;;;;;8350156;28;20079;-91
2023/10/22 20:11:31;;;;;;;30.25;13.82;;;;;;;;;;8334109;28;20512;-91
2023/10/22 20:15:36;;;;;;;22.52;11.63;;;;;;;;;;8356543;28;20140;-94
2023/10/22 20:19:41;;;;;;;24.00;11.07;;;;;;;;;;8359702;28;20045;-91
2023/10/22 20:23:46;;;;;;;20.83;11.65;;;;;;;;;;8366804;28;20135;-91
2023/10/22 20:27:58;;;;;;;22.23;11.43;;;;;;;;;;8369176;28;20455;-91
2023/10/22 20:32:01;;;;;;;19.25;10.38;;;;;;;;;;8369712;28;20484;-92
2023/10/22 20:36:05;;;;;;;18.55;9.85;;;;;;;;;;8351562;28;20053;-91
2023/10/22 20:40:11;;;;;;;22.40;10.52;;;;;;;;;;8369293;28;20067;-92
2023/10/22 20:44:15;;;;;;;19.65;9.48;;;;;;;;;;8367309;28;20415;-91
2023/10/22 20:48:18;;;;;;;20.35;9.40;;;;;;;;;;8349554;28;20485;-90
2023/10/22 20:52:22;;;;;;;19.00;9.80;;;;;;;;;;8364301;28;20045;-91
2023/10/22 20:56:25;;;;;;;16.70;8.90;;;;;;;;;;8368614;28;20044;-93
2023/10/22 21:00:30;;;;;;;17.90;8.90;;;;;;;;;;8369290;28;20136;-90
2023/10/22 21:04:33;;;;;;;18.95;9.20;;;;;;;;;;8352293;28;20138;-93
2023/10/22 21:08:36;;;;;;;18.20;9.15;;;;;;;;;;8337395;28;20057;-91
2023/10/22 21:12:39;;;;;;;20.20;9.40;;;;;;;;;;8369161;28;20045;-93
2023/10/22 21:16:44;;;;;;;17.38;9.13;;;;;;;;;;8369993;28;20053;-91
2023/10/22 21:20:47;;;;;;;17.15;8.43;;;;;;;;;;8369637;28;20055;-92
2023/10/22 21:24:50;;;;;;;14.85;7.93;;;;;;;;;;8343816;28;20477;-94
2023/10/22 21:28:53;;;;;;;13.80;7.15;;;;;;;;;;8347564;28;20045;-92
2023/10/22 21:32:58;;;;;;;10.82;5.82;;;;;;;;;;8354756;28;20500;-93
2023/10/22 21:37:00;;;;;;;9.88;5.65;;;;;;;;;;8359422;28;20052;-93
2023/10/22 21:41:03;;;;;;;9.18;5.18;;;;;;;;;;8364250;28;20076;-91
2023/10/22 21:45:07;;;;;;;8.77;4.88;;;;;;;;;;8358603;28;20042;-93
2023/10/22 21:49:12;;;;;;;6.35;3.95;;;;;;;;;;8364491;28;20166;-93
2023/10/22 21:53:15;;;;;;;7.25;3.70;;;;;;;;;;8358183;28;20413;-91
2023/10/22 21:57:18;;;;;;;6.45;3.60;;;;;;;;;;8352132;28;20041;-91
2023/10/22 22:01:21;;;;;;;6.40;3.47;;;;;;;;;;8368290;28;20049;-91
2023/10/22 22:05:26;;;;;;;7.40;4.00;;;;;;;;;;8366315;28;20041;-91
2023/10/22 22:09:28;;;;;;;8.93;4.35;;;;;;;;;;8357864;28;20066;-94
2023/10/22 22:13:31;;;;;;;9.13;4.65;;;;;;;;;;8364467;28;20060;-91
2023/10/22 22:17:36;;;;;;;9.57;4.95;;;;;;;;;;8355907;28;20397;-92
2023/10/22 22:21:41;;;;;;;6.32;3.90;;;;;;;;;;8366426;28;20047;-91
2023/10/22 22:25:47;;;;;;;6.22;3.60;;;;;;;;;;8366611;28;20053;-91
2023/10/22 22:29:50;;;;;;;6.40;4.05;;;;;;;;;;8366052;28;20420;-94
2023/10/22 22:33:52;;;;;;;5.20;3.15;;;;;;;;;;8335227;28;20088;-92
2023/10/22 22:37:57;;;;;;;5.72;3.60;;;;;;;;;;8365479;28;20045;-91
2023/10/22 22:42:00;;;;;;;4.85;3.08;;;;;;;;;;8365963;28;20049;-91
2023/10/22 22:46:03;;;;;;;4.82;2.83;;;;;;;;;;8364667;28;20048;-90
2023/10/22 22:50:07;;;;;;;4.13;2.90;;;;;;;;;;8364846;28;20056;-91
2023/10/22 22:54:11;;;;;;;4.22;2.83;;;;;;;;;;8365022;28;20060;-91
2023/10/22 22:58:14;;;;;;;4.40;3.10;;;;;;;;;;8364923;28;20393;-91
2023/10/22 23:02:17;;;;;;;6.38;3.40;;;;;;;;;;8364568;28;20047;-90
2023/10/22 23:06:20;;;;;;;7.10;3.40;;;;;;;;;;8364504;28;20045;-90
2023/10/22 23:10:25;;;;;;;5.60;3.30;;;;;;;;;;8364316;28;20052;-91
2023/10/22 23:14:27;;;;;;;5.97;3.60;;;;;;;;;;8330220;28;20052;-91
2023/10/22 23:18:30;;;;;;;6.47;3.47;;;;;;;;;;8317917;28;20045;-92
2023/10/22 23:22:33;;;;;;;6.75;3.85;;;;;;;;;;8317959;28;20397;-90
2023/10/22 23:26:38;;;;;;;9.93;3.92;;;;;;;;;;8330739;28;20559;-91
2023/10/22 23:30:41;;;;;;;6.45;4.05;;;;;;;;;;8330701;28;20405;-91
2023/10/22 23:34:44;;;;;;;8.98;4.47;;;;;;;;;;8317391;28;20132;-91
2023/10/22 23:38:46;;;;;;;8.10;4.63;;;;;;;;;;8327519;28;20414;-91
2023/10/22 23:42:51;;;;;;;7.75;4.78;;;;;;;;;;8322081;28;20064;-91
2023/10/22 23:46:54;;;;;;;7.78;5.05;;;;;;;;;;8330745;28;20045;-92
2023/10/22 23:50:57;;;;;;;9.40;5.18;;;;;;;;;;8330595;28;20096;-93
2023/10/22 23:55:01;;;;;;;8.82;5.38;;;;;;;;;;8329533;28;20053;-91
2023/10/22 23:59:05;;;;;;;11.27;5.10;;;;;;;;;;8330104;28;20473;-91
